Time;durP1;ratioP1;P1;durP2;ratioP2;P2;SDS_P1;SDS_P2;PMS_P1;PMS_P2;Temp;Humidity;BMP_temperature;BMP_pressure;BME280_temperature;BME280_humidity;BME280_pressure;Samples;Min_cycle;Max_cycle;Signal;HPM_P1;HPM_P2
2023/04/29 00:08:17;;;;;;;;;;;24.10;35.90;;;;;;20836348;28;19969;-56
2023/04/29 00:18:18;;;;;;;;;;;24.10;35.20;;;;;;20836451;28;19927;-56
2023/04/29 00:28:19;;;;;;;;;;;24.10;34.60;;;;;;20835978;28;19921;-56
2023/04/29 00:38:20;;;;;;;;;;;24.10;33.10;;;;;;20834757;28;20282;-56
2023/04/29 00:48:22;;;;;;;;;;;24.10;32.80;;;;;;20834935;28;19928;-55
2023/04/29 00:58:29;;;;;;;;;;;23.90;32.90;;;;;;20832680;28;20366;-58
2023/04/29 01:08:38;;;;;;;;;;;24.10;33.30;;;;;;20833281;28;19921;-56
2023/04/29 01:18:45;;;;;;;;;;;24.00;34.30;;;;;;20831615;28;19947;-57
2023/04/29 01:29:01;;;;;;;;;;;23.90;34.80;;;;;;20830817;28;19974;-56
2023/04/29 01:39:08;;;;;;;;;;;23.80;34.30;;;;;;20830953;28;19944;-56
2023/04/29 01:49:11;;;;;;;;;;;23.60;34.60;;;;;;20831179;28;20336;-56
2023/04/29 01:59:13;;;;;;;;;;;23.40;34.80;;;;;;20830923;28;19967;-57
2023/04/29 02:09:14;;;;;;;;;;;23.20;35.10;;;;;;20830622;28;19928;-55
2023/04/29 02:19:15;;;;;;;;;;;23.20;35.20;;;;;;20830455;28;20384;-56
2023/04/29 02:29:17;;;;;;;;;;;23.10;35.60;;;;;;20828074;28;19932;-55
2023/04/29 02:39:19;;;;;;;;;;;23.20;35.40;;;;;;20827734;28;19921;-56
2023/04/29 02:49:20;;;;;;;;;;;22.90;35.90;;;;;;20827158;28;19921;-56
2023/04/29 02:59:21;;;;;;;;;;;22.70;36.50;;;;;;20841940;28;19925;-56
2023/04/29 03:09:23;;;;;;;;;;;22.70;37.00;;;;;;20842151;28;19920;-55
2023/04/29 03:19:24;;;;;;;;;;;22.60;37.30;;;;;;20840883;28;19921;-56
2023/04/29 03:29:26;;;;;;;;;;;22.30;37.60;;;;;;20839973;28;19921;-55
2023/04/29 03:39:31;;;;;;;;;;;22.20;38.00;;;;;;20839092;28;19920;-56
2023/04/29 03:49:32;;;;;;;;;;;22.30;38.50;;;;;;20839845;28;19932;-56
2023/04/29 03:59:33;;;;;;;;;;;22.10;38.80;;;;;;20838542;28;20050;-55
2023/04/29 04:09:35;;;;;;;;;;;22.10;39.00;;;;;;20835873;28;19928;-56
2023/04/29 04:19:36;;;;;;;;;;;22.00;38.80;;;;;;20836020;28;19951;-56
2023/04/29 04:29:37;;;;;;;;;;;21.90;38.50;;;;;;20836379;28;19921;-57
2023/04/29 04:39:38;;;;;;;;;;;21.80;38.50;;;;;;20835345;28;20281;-55
2023/04/29 04:49:40;;;;;;;;;;;21.80;38.40;;;;;;20834565;28;19921;-55
2023/04/29 04:59:42;;;;;;;;;;;21.60;38.50;;;;;;20833749;28;20318;-56
2023/04/29 05:09:43;;;;;;;;;;;21.30;40.90;;;;;;20833464;28;19927;-56
2023/04/29 05:19:44;;;;;;;;;;;21.10;41.20;;;;;;20832397;28;19921;-55
2023/04/29 05:29:46;;;;;;;;;;;21.00;41.00;;;;;;20832283;28;20373;-55
2023/04/29 05:39:48;;;;;;;;;;;21.00;41.10;;;;;;20831836;28;20255;-56
2023/04/29 05:49:49;;;;;;;;;;;21.00;40.80;;;;;;20830853;28;19921;-56
2023/04/29 05:59:50;;;;;;;;;;;21.10;40.70;;;;;;20830912;28;20274;-57
2023/04/29 06:09:52;;;;;;;;;;;21.20;40.70;;;;;;20830062;28;20267;-56
2023/04/29 06:19:53;;;;;;;;;;;21.20;40.80;;;;;;20829120;28;20494;-57
2023/04/29 06:29:54;;;;;;;;;;;21.20;41.30;;;;;;20836518;28;19921;-56
2023/04/29 06:39:55;;;;;;;;;;;21.40;41.60;;;;;;20844546;28;20282;-56
2023/04/29 06:49:57;;;;;;;;;;;21.60;41.70;;;;;;20844011;28;20293;-56
2023/04/29 06:59:58;;;;;;;;;;;21.70;40.80;;;;;;20841416;28;19944;-56
2023/04/29 07:09:59;;;;;;;;;;;21.80;40.50;;;;;;20841781;28;19920;-56
2023/04/29 07:20:01;;;;;;;;;;;22.10;40.00;;;;;;20840599;28;19925;-56
2023/04/29 07:30:03;;;;;;;;;;;22.70;39.50;;;;;;20841460;28;20377;-56
2023/04/29 07:40:04;;;;;;;;;;;23.20;39.40;;;;;;20838105;28;19921;-56
2023/04/29 07:50:06;;;;;;;;;;;23.60;38.50;;;;;;20839842;28;20384;-56
2023/04/29 08:00:08;;;;;;;;;;;23.90;38.00;;;;;;20838495;28;19928;-56
2023/04/29 08:10:10;;;;;;;;;;;24.20;37.00;;;;;;20836543;28;19920;-55
2023/04/29 08:20:11;;;;;;;;;;;24.20;38.30;;;;;;20835091;28;19920;-57
2023/04/29 08:30:12;;;;;;;;;;;24.00;38.20;;;;;;20826505;28;19925;-56
2023/04/29 08:40:14;;;;;;;;;;;24.10;38.10;;;;;;20833472;28;20016;-56
2023/04/29 08:50:16;;;;;;;;;;;24.20;38.20;;;;;;20828767;28;20007;-57
2023/04/29 09:00:18;;;;;;;;;;;24.40;37.90;;;;;;20822784;28;19928;-56
2023/04/29 09:10:20;;;;;;;;;;;24.40;37.80;;;;;;20829587;28;20337;-56
2023/04/29 09:20:21;;;;;;;;;;;24.40;37.40;;;;;;20830712;28;19991;-56
2023/04/29 09:30:23;;;;;;;;;;;24.20;37.20;;;;;;20829726;28;19925;-57
2023/04/29 09:40:31;;;;;;;;;;;24.30;36.70;;;;;;20829183;28;19928;-57
2023/04/29 09:50:32;;;;;;;;;;;24.30;35.90;;;;;;20829766;28;20026;-57
2023/04/29 10:00:34;;;;;;;;;;;24.20;35.60;;;;;;20829356;28;20038;-57
2023/04/29 10:10:36;;;;;;;;;;;24.20;37.20;;;;;;20846976;28;20397;-57
2023/04/29 10:20:39;;;;;;;;;;;24.10;41.90;;;;;;20843757;28;19948;-56
2023/04/29 10:30:42;;;;;;;;;;;24.10;40.10;;;;;;20843701;28;19921;-57
2023/04/29 10:40:47;;;;;;;;;;;23.80;42.80;;;;;;20843807;28;20371;-56
2023/04/29 10:50:49;;;;;;;;;;;23.70;44.80;;;;;;20836948;28;19921;-57
2023/04/29 11:00:52;;;;;;;;;;;23.50;47.20;;;;;;20835493;28;19921;-56
2023/04/29 11:10:59;;;;;;;;;;;23.10;48.70;;;;;;20832787;28;19943;-57
2023/04/29 11:21:03;;;;;;;;;;;22.80;49.30;;;;;;20839868;28;20019;-57
2023/04/29 11:31:06;;;;;;;;;;;22.80;53.10;;;;;;20838335;28;19928;-57
2023/04/29 11:41:07;;;;;;;;;;;22.70;52.70;;;;;;20839266;28;19925;-56
2023/04/29 11:51:09;;;;;;;;;;;22.70;54.70;;;;;;20837268;28;19921;-56
2023/04/29 12:01:11;;;;;;;;;;;22.90;56.50;;;;;;20835848;28;19921;-56
2023/04/29 12:11:12;;;;;;;;;;;23.00;53.90;;;;;;20837046;28;19966;-58
2023/04/29 12:21:14;;;;;;;;;;;23.30;51.10;;;;;;20827164;28;19921;-56
2023/04/29 12:31:15;;;;;;;;;;;23.60;50.80;;;;;;20834536;28;19921;-57
2023/04/29 12:41:17;;;;;;;;;;;23.70;50.70;;;;;;20833861;28;20273;-57
2023/04/29 12:51:18;;;;;;;;;;;23.90;49.70;;;;;;20832367;28;19925;-56
2023/04/29 13:01:21;;;;;;;;;;;24.20;46.50;;;;;;20832077;28;19929;-58
2023/04/29 13:11:22;;;;;;;;;;;24.60;44.00;;;;;;20832150;28;20282;-58
2023/04/29 13:21:23;;;;;;;;;;;24.90;43.60;;;;;;20830683;28;19975;-56
2023/04/29 13:31:25;;;;;;;;;;;25.20;41.60;;;;;;20831274;28;19928;-57
2023/04/29 13:41:26;;;;;;;;;;;25.40;40.40;;;;;;20826897;28;20020;-57
2023/04/29 13:51:27;;;;;;;;;;;25.50;38.80;;;;;;20828558;28;19925;-56
2023/04/29 14:01:29;;;;;;;;;;;25.50;38.00;;;;;;20828953;28;19921;-56
2023/04/29 14:11:35;;;;;;;;;;;26.10;36.00;;;;;;20828872;28;19951;-58
2023/04/29 14:21:36;;;;;;;;;;;26.30;34.10;;;;;;20827112;28;19925;-56
2023/04/29 14:31:37;;;;;;;;;;;26.30;34.80;;;;;;20827595;28;19932;-56
2023/04/29 14:41:39;;;;;;;;;;;26.70;34.00;;;;;;20827583;28;19921;-56
2023/04/29 14:51:40;;;;;;;;;;;26.90;33.10;;;;;;20835930;28;19928;-57
2023/04/29 15:01:41;;;;;;;;;;;26.80;33.70;;;;;;20839937;28;19988;-57
2023/04/29 15:11:43;;;;;;;;;;;26.90;30.70;;;;;;20841001;28;19928;-58
2023/04/29 15:21:44;;;;;;;;;;;26.80;30.10;;;;;;20840183;28;19968;-57
2023/04/29 15:31:45;;;;;;;;;;;26.90;30.40;;;;;;20839836;28;19921;-57
2023/04/29 15:41:47;;;;;;;;;;;26.80;31.00;;;;;;20839038;28;20378;-57
2023/04/29 15:51:48;;;;;;;;;;;26.70;30.70;;;;;;20839101;28;19925;-57
2023/04/29 16:01:50;;;;;;;;;;;26.70;31.50;;;;;;20836696;28;20077;-57
2023/04/29 16:11:52;;;;;;;;;;;26.80;31.90;;;;;;20836041;28;20239;-57
2023/04/29 16:21:54;;;;;;;;;;;26.70;32.50;;;;;;20833701;28;19935;-58
2023/04/29 16:31:56;;;;;;;;;;;26.40;32.90;;;;;;20835325;28;19928;-56
2023/04/29 16:41:58;;;;;;;;;;;26.60;32.00;;;;;;20832828;28;20392;-57
2023/04/29 16:51:59;;;;;;;;;;;26.70;32.00;;;;;;20830723;28;19921;-57
2023/04/29 17:02:01;;;;;;;;;;;26.70;31.60;;;;;;20829829;28;19928;-56
2023/04/29 17:12:03;;;;;;;;;;;26.70;30.00;;;;;;20823085;28;19929;-56
2023/04/29 17:22:04;;;;;;;;;;;26.70;29.80;;;;;;20826805;28;20432;-57
2023/04/29 17:32:11;;;;;;;;;;;26.40;30.10;;;;;;20831347;28;20393;-57
2023/04/29 17:42:12;;;;;;;;;;;26.30;34.40;;;;;;20827219;28;19921;-57
2023/04/29 17:52:16;;;;;;;;;;;26.00;36.30;;;;;;20820320;28;19928;-57
2023/04/29 18:02:17;;;;;;;;;;;25.70;37.00;;;;;;20827111;28;19947;-57
2023/04/29 18:12:19;;;;;;;;;;;25.70;37.40;;;;;;20828243;28;19921;-58
2023/04/29 18:22:20;;;;;;;;;;;25.70;33.10;;;;;;20829049;28;19921;-58
2023/04/29 18:32:21;;;;;;;;;;;25.70;31.30;;;;;;20845127;28;19921;-58
2023/04/29 18:42:22;;;;;;;;;;;25.50;31.40;;;;;;20842473;28;19928;-57
2023/04/29 18:52:24;;;;;;;;;;;25.40;30.70;;;;;;20842901;28;19921;-59
2023/04/29 19:02:25;;;;;;;;;;;25.20;31.50;;;;;;20841588;28;19967;-59
2023/04/29 19:12:27;;;;;;;;;;;25.10;31.90;;;;;;20840291;28;19929;-56
2023/04/29 19:22:28;;;;;;;;;;;24.90;32.50;;;;;;20841822;28;19927;-59
2023/04/29 19:32:29;;;;;;;;;;;24.70;33.00;;;;;;20838660;28;19921;-58
2023/04/29 19:42:31;;;;;;;;;;;24.50;33.70;;;;;;20838465;28;19925;-57
2023/04/29 19:52:32;;;;;;;;;;;24.40;34.60;;;;;;20839384;28;20393;-57
2023/04/29 20:02:33;;;;;;;;;;;24.30;35.30;;;;;;20838051;28;19928;-59
2023/04/29 20:12:35;;;;;;;;;;;24.10;35.70;;;;;;20837466;28;19920;-58
2023/04/29 20:22:37;;;;;;;;;;;24.00;36.30;;;;;;20836494;28;20321;-58
2023/04/29 20:32:38;;;;;;;;;;;23.80;36.90;;;;;;20833824;28;19921;-57
2023/04/29 20:42:40;;;;;;;;;;;23.70;37.30;;;;;;20833546;28;19921;-57
2023/04/29 20:52:41;;;;;;;;;;;23.60;38.00;;;;;;20833032;28;19921;-59
2023/04/29 21:02:43;;;;;;;;;;;23.50;38.20;;;;;;20831275;28;19921;-59
2023/04/29 21:12:44;;;;;;;;;;;23.40;38.40;;;;;;20832082;28;19967;-58
2023/04/29 21:22:45;;;;;;;;;;;23.30;38.50;;;;;;20830092;28;20036;-58
2023/04/29 21:32:47;;;;;;;;;;;23.10;38.80;;;;;;20830458;28;20282;-57
2023/04/29 21:42:49;;;;;;;;;;;23.00;39.10;;;;;;20830855;28;19925;-58
2023/04/29 21:52:51;;;;;;;;;;;22.90;39.50;;;;;;20812595;28;19921;-57
2023/04/29 22:02:52;;;;;;;;;;;22.80;39.90;;;;;;20826694;28;19946;-58
2023/04/29 22:12:54;;;;;;;;;;;22.70;40.20;;;;;;20828585;28;20016;-57
2023/04/29 22:22:55;;;;;;;;;;;22.70;40.40;;;;;;20826835;28;20257;-60
2023/04/29 22:32:57;;;;;;;;;;;22.50;40.70;;;;;;20827767;28;20074;-55
2023/04/29 22:42:58;;;;;;;;;;;22.50;40.80;;;;;;20829029;28;19929;-58
2023/04/29 22:53:00;;;;;;;;;;;22.40;41.00;;;;;;20827569;28;19921;-58
2023/04/29 23:03:01;;;;;;;;;;;22.40;40.70;;;;;;20828482;28;19921;-58
2023/04/29 23:13:02;;;;;;;;;;;22.30;40.30;;;;;;20836761;28;19928;-55
2023/04/29 23:23:04;;;;;;;;;;;22.20;41.10;;;;;;20840798;28;19961;-56
2023/04/29 23:33:06;;;;;;;;;;;22.00;41.40;;;;;;20841524;28;20339;-56
2023/04/29 23:43:07;;;;;;;;;;;21.90;41.40;;;;;;20840597;28;19924;-58
2023/04/29 23:53:08;;;;;;;;;;;21.90;41.70;;;;;;20840306;28;19921;-57
